Portada
METAR-TAF:

METAR-TAF

Aeropuertos :

Madrid-Getafe, España

Base Aérea de Getafe

latitud: 40-18N, longitud: 003-43W, altitud: 620 m

Observación

El informe se hizo hace 8 horas y 0 minutos, a las 19:00 UTC
Viento 7 kt del noreste
Temperatura 10°C
Humedad 66%
Presión 1023 hPa
Visibilidad 10 km o más
Nubes dispersas a una altura de 4900 ft

METAR: LEGT 171900Z 05007KT 9999 SCT049 10/04 Q1023

Hora: 04:00 (03:00 UTC)

Pronóstico

El informe se hizo hace 10 horas y 0 minutos, a las 17:00 UTC
Pronóstico válido del 17 a las 18 UTC al 18 a las 03 UTC
Viento 10 kt del noreste
Visibilidad 10 km o más
Cielo nuboso a una altura de 4000 ft

TAF: LEGT 171700Z 1718/1803 05010KT 9999 BKN040

Observaciones y pronósticos meteorológicos de más de 4000 aeropuertos (mensajes METAR y TAF).

Los puntos amarillos y rojos representan las estaciones disponibles.

Ponga el ratón en el punto deseado para ver el nombre de la estación.

Haga clic para ver las observaciones y los pronósticos meteorológicos.

Para cambiar el mapa : haga clic en los botones verdes con una cruz de color negro para hacer un zoom, en el botón verde con un guión para alejar o en las flechas verdes para mapas adyacentes.


METAR-TAF: